Terminal Aerodrome Forecast
Issued by NWS

Home | Current Version | Previous Version | Text Only | Print | Product List | Glossary On
Versions: 1 2 3 4 5 6 7 8 9 10 11 12 13
000
FTUS44 KBMX 250929 AAA
TAFANB
TAF AMD
KANB 250929Z 2509/2606 13007KT 4SM TSRA OVC025CB
      TEMPO 2509/2511 06010G20KT 1/4SM +TSRA FG BKN012CB
     FM251200 23012KT P6SM VCTS OVC025CB
      TEMPO 2512/2514 4SM SHRA OVC025
     FM260000 21007KT P6SM SCT150=

USA.gov is the U.S. government's official web portal to all federal, state and local government web resources and services.